createdAt,value
2022-11-10T12:23:01.774Z,1017.67
2022-11-10T12:24:06.045Z,1017.63
2022-11-10T12:25:01.720Z,1017.65
2022-11-10T12:26:01.697Z,1017.67
2022-11-10T12:27:01.688Z,1017.69
2022-11-10T12:28:01.662Z,1017.72
2022-11-10T12:29:01.642Z,1017.69
2022-11-10T12:30:01.630Z,1017.74
2022-11-10T12:31:02.086Z,1017.70
2022-11-10T12:32:01.592Z,1017.73
2022-11-10T12:33:01.568Z,1017.76
2022-11-10T12:34:01.551Z,1017.80
2022-11-10T12:35:01.551Z,1017.75
2022-11-10T12:36:01.517Z,1017.78
2022-11-10T12:37:01.504Z,1017.80
2022-11-10T12:38:01.484Z,1017.77
2022-11-10T12:39:01.533Z,1017.78
2022-11-10T12:40:01.457Z,1017.78
2022-11-10T12:41:01.443Z,1017.82
2022-11-10T12:42:01.411Z,1017.84
2022-11-10T12:43:01.392Z,1017.83
2022-11-10T12:44:01.375Z,1017.84
2022-11-10T12:45:01.376Z,1017.80
2022-11-10T12:46:01.341Z,1017.87
2022-11-10T12:47:01.326Z,1017.84
2022-11-10T12:48:01.302Z,1017.78
2022-11-10T12:49:01.283Z,1017.80
2022-11-10T12:50:01.274Z,1017.76
2022-11-10T12:51:01.261Z,1017.76
2022-11-10T12:52:01.235Z,1017.79
2022-11-10T12:53:03.096Z,1017.77
2022-11-10T12:54:01.203Z,1017.76
2022-11-10T12:55:01.206Z,1017.76
2022-11-10T12:56:01.161Z,1017.73
2022-11-10T12:57:01.160Z,1017.75
2022-11-10T12:58:01.127Z,1017.73
2022-11-10T12:59:01.123Z,1017.77
2022-11-10T13:00:01.115Z,1017.72
2022-11-10T13:01:01.097Z,1017.73
2022-11-10T13:02:01.069Z,1017.64
2022-11-10T13:03:01.054Z,1017.65
2022-11-10T13:04:01.057Z,1017.69
2022-11-10T13:05:01.027Z,1017.67
2022-11-10T13:06:01.017Z,1017.69
2022-11-10T13:07:01.025Z,1017.70
2022-11-10T13:08:00.979Z,1017.72
2022-11-10T13:09:00.949Z,1017.79
2022-11-10T13:10:00.948Z,1017.78
2022-11-10T13:11:00.921Z,1017.80
2022-11-10T13:12:00.910Z,1017.80
2022-11-10T13:13:00.893Z,1017.80
2022-11-10T13:14:00.877Z,1017.74
2022-11-10T13:15:00.874Z,1017.75
2022-11-10T13:16:00.842Z,1017.73
2022-11-10T13:17:00.821Z,1017.75
2022-11-10T13:18:00.802Z,1017.76
2022-11-10T13:19:00.797Z,1017.75
2022-11-10T13:20:14.447Z,1017.81
2022-11-10T13:21:00.767Z,1017.77
2022-11-10T13:22:00.741Z,1017.73
2022-11-10T13:23:00.725Z,1017.80
2022-11-10T13:24:00.715Z,1017.79
2022-11-10T13:25:00.735Z,1017.82
2022-11-10T13:26:00.685Z,1017.83
2022-11-10T13:27:00.673Z,1017.82
2022-11-10T13:28:00.641Z,1017.84
2022-11-10T13:29:00.638Z,1017.84
2022-11-10T13:30:00.647Z,1017.93
2022-11-10T13:31:00.622Z,1017.95
2022-11-10T13:32:00.578Z,1017.97
2022-11-10T13:33:00.567Z,1017.93
2022-11-10T13:34:00.544Z,1017.94
2022-11-10T13:35:00.541Z,1017.98
2022-11-10T13:36:00.529Z,1017.93
2022-11-10T13:37:00.503Z,1017.92
2022-11-10T13:38:00.494Z,1017.99
2022-11-10T13:39:00.468Z,1018.02
2022-11-10T13:40:00.474Z,1017.98
2022-11-10T13:41:00.449Z,1017.99
2022-11-10T13:42:00.433Z,1017.99
2022-11-10T13:43:00.429Z,1017.99
2022-11-10T13:44:00.397Z,1018.02
2022-11-10T13:45:00.383Z,1017.98
2022-11-10T13:46:00.354Z,1017.99
2022-11-10T13:47:00.340Z,1017.99
2022-11-10T13:48:00.323Z,1018.02
